Time;durP1;ratioP1;P1;durP2;ratioP2;P2;SDS_P1;SDS_P2;PMS_P1;PMS_P2;Temp;Humidity;BMP_temperature;BMP_pressure;BME280_temperature;BME280_humidity;BME280_pressure;Samples;Min_cycle;Max_cycle;Signal;HPM_P1;HPM_P2
2021/08/10 00:01:20;;;;;;;2.65;2.28;;;;;;;;;;4462084;32;20329;-55
2021/08/10 00:03:46;;;;;;;6.87;3.40;;;;;;;;;;4464334;32;20272;-56
2021/08/10 00:06:11;;;;;;;4.22;3.20;;;;;;;;;;4464092;32;20232;-55
2021/08/10 00:08:36;;;;;;;4.87;3.37;;;;;;;;;;4464644;32;20209;-55
2021/08/10 00:11:02;;;;;;;9.38;3.95;;;;;;;;;;4463794;32;20267;-55
2021/08/10 00:13:27;;;;;;;10.40;4.18;;;;;;;;;;4465019;32;20270;-55
2021/08/10 00:15:54;;;;;;;6.80;3.10;;;;;;;;;;4465493;32;20282;-58
2021/08/10 00:18:20;;;;;;;5.45;3.45;;;;;;;;;;4464579;32;20246;-55
2021/08/10 00:20:45;;;;;;;6.05;3.30;;;;;;;;;;4464884;32;20271;-55
2021/08/10 00:23:11;;;;;;;3.20;2.87;;;;;;;;;;4464692;32;20223;-56
2021/08/10 00:25:36;;;;;;;8.82;3.97;;;;;;;;;;4465464;32;20297;-55
2021/08/10 00:28:02;;;;;;;10.13;4.40;;;;;;;;;;4464513;32;20275;-54
2021/08/10 00:30:28;;;;;;;6.05;3.65;;;;;;;;;;4464850;32;20267;-55
2021/08/10 00:32:53;;;;;;;9.00;5.15;;;;;;;;;;4464089;32;20294;-54
2021/08/10 00:35:19;;;;;;;7.10;4.15;;;;;;;;;;4463805;32;20299;-55
2021/08/10 00:37:45;;;;;;;7.35;5.40;;;;;;;;;;4447155;32;20733;-55
2021/08/10 00:40:12;;;;;;;7.15;4.43;;;;;;;;;;4464400;32;20617;-54
2021/08/10 00:42:38;;;;;;;8.80;4.28;;;;;;;;;;4463630;32;20216;-54
2021/08/10 00:45:04;;;;;;;12.20;6.22;;;;;;;;;;4464109;32;20579;-54
2021/08/10 00:47:30;;;;;;;8.10;5.22;;;;;;;;;;4464893;32;20283;-54
2021/08/10 00:49:55;;;;;;;13.75;5.12;;;;;;;;;;4463917;32;20313;-54
2021/08/10 00:52:21;;;;;;;6.53;4.35;;;;;;;;;;4464806;32;20294;-54
2021/08/10 00:54:46;;;;;;;10.52;4.18;;;;;;;;;;4463973;32;20219;-54
2021/08/10 00:57:12;;;;;;;12.35;4.55;;;;;;;;;;4464340;32;20279;-57
2021/08/10 00:59:37;;;;;;;6.22;4.32;;;;;;;;;;4462966;32;20221;-55
2021/08/10 01:02:04;;;;;;;12.10;5.32;;;;;;;;;;4448863;32;20279;-55
2021/08/10 01:04:30;;;;;;;8.35;4.35;;;;;;;;;;4455579;32;20286;-55
2021/08/10 01:07:18;;;;;;;7.95;4.28;;;;;;;;;;4458948;32;20314;-55
2021/08/10 01:10:16;;;;;;;4.65;4.05;;;;;;;;;;4464376;32;20284;-55
2021/08/10 01:12:54;;;;;;;4.20;3.60;;;;;;;;;;4464659;32;20204;-55
2021/08/10 01:15:24;;;;;;;7.97;3.62;;;;;;;;;;4448862;32;20210;-55
2021/08/10 01:17:55;;;;;;;6.05;4.68;;;;;;;;;;4448411;32;20276;-55
2021/08/10 01:20:26;;;;;;;8.55;5.43;;;;;;;;;;4458723;32;20228;-55
2021/08/10 01:22:55;;;;;;;9.82;6.93;;;;;;;;;;4464028;32;20271;-55
2021/08/10 01:25:26;;;;;;;6.43;4.62;;;;;;;;;;4464162;32;20235;-55
2021/08/10 01:28:16;;;;;;;8.65;4.20;;;;;;;;;;4463985;32;20720;-55
2021/08/10 01:31:06;;;;;;;8.30;3.75;;;;;;;;;;4464347;32;20224;-55
2021/08/10 01:33:39;;;;;;;6.60;3.62;;;;;;;;;;4453036;32;20290;-55
2021/08/10 01:36:06;;;;;;;7.80;3.53;;;;;;;;;;4463828;32;20226;-58
2021/08/10 01:38:32;;;;;;;4.30;3.30;;;;;;;;;;4464080;32;20203;-53
2021/08/10 01:41:00;;;;;;;6.00;2.87;;;;;;;;;;4463569;32;20322;-56
2021/08/10 01:43:27;;;;;;;6.50;3.53;;;;;;;;;;4462968;32;20213;-54
2021/08/10 01:45:54;;;;;;;4.10;2.83;;;;;;;;;;4463258;32;20629;-55
2021/08/10 01:48:21;;;;;;;10.93;3.83;;;;;;;;;;4463628;32;20208;-55
2021/08/10 01:50:47;;;;;;;9.88;3.35;;;;;;;;;;4463281;32;20609;-54
2021/08/10 01:53:15;;;;;;;8.27;3.45;;;;;;;;;;4461825;32;20260;-55
2021/08/10 01:55:41;;;;;;;6.72;4.20;;;;;;;;;;4463591;32;20196;-55
2021/08/10 01:58:07;;;;;;;5.72;3.25;;;;;;;;;;4462780;32;20479;-55
2021/08/10 02:00:35;;;;;;;4.55;3.60;;;;;;;;;;4456447;32;20426;-54
2021/08/10 02:03:06;;;;;;;3.58;2.78;;;;;;;;;;4447741;32;20323;-55
2021/08/10 02:05:32;;;;;;;6.62;3.62;;;;;;;;;;4462540;32;20240;-54
2021/08/10 02:07:58;;;;;;;5.53;3.22;;;;;;;;;;4463057;32;20255;-55
2021/08/10 02:10:25;;;;;;;6.57;3.30;;;;;;;;;;4463066;32;20690;-55
2021/08/10 02:12:51;;;;;;;5.87;3.80;;;;;;;;;;4463337;32;20294;-55
2021/08/10 02:15:16;;;;;;;4.87;3.05;;;;;;;;;;4463550;32;20263;-56
2021/08/10 02:17:42;;;;;;;5.15;2.83;;;;;;;;;;4463048;32;20284;-56
2021/08/10 02:20:12;;;;;;;6.37;3.83;;;;;;;;;;4461791;32;20216;-55
2021/08/10 02:22:39;;;;;;;7.55;3.67;;;;;;;;;;4463447;32;20215;-56
2021/08/10 02:25:10;;;;;;;6.40;3.75;;;;;;;;;;4462980;32;20278;-55
2021/08/10 02:27:45;;;;;;;5.93;3.30;;;;;;;;;;4463313;32;20395;-55
2021/08/10 02:30:12;;;;;;;8.50;3.50;;;;;;;;;;4462825;32;20672;-55
2021/08/10 02:32:41;;;;;;;7.37;3.35;;;;;;;;;;4453268;32;20641;-55
2021/08/10 02:35:07;;;;;;;6.72;3.83;;;;;;;;;;4462695;32;20207;-54
2021/08/10 02:37:34;;;;;;;7.75;3.67;;;;;;;;;;4463667;32;20279;-53
2021/08/10 02:40:03;;;;;;;8.50;4.12;;;;;;;;;;4463086;32;20258;-53
2021/08/10 02:42:29;;;;;;;6.95;3.95;;;;;;;;;;4462769;32;20223;-54
2021/08/10 02:44:57;;;;;;;8.32;2.87;;;;;;;;;;4446390;32;20410;-54
2021/08/10 02:47:24;;;;;;;4.47;3.42;;;;;;;;;;4461238;32;20264;-54
2021/08/10 02:49:50;;;;;;;5.75;3.72;;;;;;;;;;4462100;32;20594;-53
2021/08/10 02:52:15;;;;;;;7.25;4.28;;;;;;;;;;4463117;32;20350;-55
2021/08/10 02:54:42;;;;;;;5.30;3.85;;;;;;;;;;4463115;32;20342;-54
2021/08/10 02:57:20;;;;;;;6.85;4.12;;;;;;;;;;4463129;32;20253;-56
2021/08/10 02:59:52;;;;;;;7.85;3.45;;;;;;;;;;4460216;32;20330;-54
2021/08/10 03:02:20;;;;;;;8.98;3.78;;;;;;;;;;4462895;32;20243;-54
2021/08/10 03:04:58;;;;;;;11.40;3.25;;;;;;;;;;4456524;32;20306;-55
2021/08/10 03:07:25;;;;;;;6.05;2.80;;;;;;;;;;4460051;32;20208;-55
2021/08/10 03:09:55;;;;;;;6.12;3.28;;;;;;;;;;4463144;32;20283;-56
2021/08/10 03:12:22;;;;;;;11.77;4.10;;;;;;;;;;4465527;32;20484;-54
2021/08/10 03:14:51;;;;;;;6.80;3.47;;;;;;;;;;4450273;32;20227;-54
2021/08/10 03:17:19;;;;;;;8.93;3.72;;;;;;;;;;4449308;32;20299;-55
2021/08/10 03:19:45;;;;;;;5.87;3.22;;;;;;;;;;4461774;32;20232;-54
2021/08/10 03:22:13;;;;;;;5.85;3.42;;;;;;;;;;4464024;32;20526;-55
2021/08/10 03:24:40;;;;;;;5.85;3.62;;;;;;;;;;4464851;32;20203;-55
2021/08/10 03:27:07;;;;;;;5.10;3.53;;;;;;;;;;4457966;32;20379;-55
2021/08/10 03:29:34;;;;;;;6.30;3.35;;;;;;;;;;4460578;32;20260;-54
2021/08/10 03:32:01;;;;;;;8.32;3.47;;;;;;;;;;4464673;32;20216;-55
2021/08/10 03:34:27;;;;;;;7.50;3.50;;;;;;;;;;4464414;32;20291;-54
2021/08/10 03:36:53;;;;;;;7.07;3.60;;;;;;;;;;4464971;32;20291;-55
2021/08/10 03:39:20;;;;;;;7.60;4.07;;;;;;;;;;4464754;32;20220;-54
2021/08/10 03:41:46;;;;;;;8.10;3.42;;;;;;;;;;4464508;32;20385;-54
2021/08/10 03:44:14;;;;;;;5.57;3.92;;;;;;;;;;4464373;32;20277;-55
2021/08/10 03:46:40;;;;;;;5.10;4.07;;;;;;;;;;4464404;32;20204;-55
2021/08/10 03:49:06;;;;;;;8.50;4.47;;;;;;;;;;4464095;32;20307;-54
2021/08/10 03:51:35;;;;;;;9.02;4.28;;;;;;;;;;4464555;32;20309;-55
2021/08/10 03:54:01;;;;;;;7.62;5.32;;;;;;;;;;4463881;32;20207;-54
2021/08/10 03:56:27;;;;;;;11.10;5.47;;;;;;;;;;4464851;32;20296;-54
2021/08/10 03:58:56;;;;;;;9.90;6.15;;;;;;;;;;4463848;32;20557;-54
2021/08/10 04:01:24;;;;;;;6.62;3.97;;;;;;;;;;4451978;32;20375;-56
2021/08/10 04:03:50;;;;;;;7.30;5.00;;;;;;;;;;4462112;32;20276;-55
2021/08/10 04:06:16;;;;;;;11.70;5.05;;;;;;;;;;4464886;32;20234;-55
2021/08/10 04:08:47;;;;;;;9.63;5.35;;;;;;;;;;4465318;32;20336;-56
2021/08/10 04:11:18;;;;;;;8.85;4.55;;;;;;;;;;4449070;32;20751;-53
2021/08/10 04:13:43;;;;;;;10.75;4.95;;;;;;;;;;4455689;32;20238;-55
2021/08/10 04:16:12;;;;;;;8.57;3.95;;;;;;;;;;4464062;32;20310;-54
2021/08/10 04:18:38;;;;;;;6.40;4.00;;;;;;;;;;4464473;32;20327;-54
2021/08/10 04:21:03;;;;;;;8.68;4.10;;;;;;;;;;4460657;32;20301;-55
2021/08/10 04:23:29;;;;;;;9.82;3.40;;;;;;;;;;4456711;32;20666;-54
2021/08/10 04:25:54;;;;;;;10.38;4.32;;;;;;;;;;4453839;32;20329;-54
2021/08/10 04:28:20;;;;;;;8.35;4.40;;;;;;;;;;4452643;32;20315;-54
2021/08/10 04:30:46;;;;;;;9.82;3.92;;;;;;;;;;4463689;32;20747;-54
2021/08/10 04:33:12;;;;;;;6.30;4.03;;;;;;;;;;4452884;32;20293;-55
2021/08/10 04:35:37;;;;;;;5.18;3.83;;;;;;;;;;4464638;32;20687;-56
2021/08/10 04:38:03;;;;;;;6.93;4.37;;;;;;;;;;4463924;32;20340;-54
2021/08/10 04:40:29;;;;;;;8.35;4.45;;;;;;;;;;4464614;32;20260;-54
2021/08/10 04:42:55;;;;;;;9.73;4.15;;;;;;;;;;4462847;32;20789;-54
2021/08/10 04:45:21;;;;;;;11.70;4.20;;;;;;;;;;4464938;32;20263;-54
2021/08/10 04:47:47;;;;;;;12.13;4.50;;;;;;;;;;4464556;32;20754;-56
2021/08/10 04:50:13;;;;;;;14.98;5.87;;;;;;;;;;4464351;32;20283;-55
2021/08/10 04:52:38;;;;;;;13.15;4.75;;;;;;;;;;4461972;32;20267;-54
2021/08/10 04:55:05;;;;;;;16.37;5.00;;;;;;;;;;4447430;32;20228;-54
2021/08/10 04:57:31;;;;;;;16.55;6.12;;;;;;;;;;4446768;32;20251;-55
2021/08/10 04:59:56;;;;;;;16.27;4.30;;;;;;;;;;4458538;32;20287;-54
2021/08/10 05:02:22;;;;;;;9.32;4.43;;;;;;;;;;4463815;32;20684;-56
2021/08/10 05:04:47;;;;;;;11.93;4.47;;;;;;;;;;4464252;32;20304;-55
2021/08/10 05:07:13;;;;;;;8.38;4.32;;;;;;;;;;4464371;32;20323;-55
2021/08/10 05:09:38;;;;;;;19.62;5.97;;;;;;;;;;4464361;32;20212;-54
2021/08/10 05:12:05;;;;;;;11.32;6.12;;;;;;;;;;4464431;32;20282;-55
2021/08/10 05:14:33;;;;;;;10.35;4.62;;;;;;;;;;4464087;32;20283;-54
2021/08/10 05:16:59;;;;;;;13.38;4.87;;;;;;;;;;4464233;32;20543;-54
2021/08/10 05:19:24;;;;;;;7.10;4.47;;;;;;;;;;4463659;32;20618;-55
2021/08/10 05:21:50;;;;;;;10.90;5.15;;;;;;;;;;4464555;32;20271;-55
2021/08/10 05:24:15;;;;;;;8.35;4.03;;;;;;;;;;4463640;32;20437;-55
2021/08/10 05:26:41;;;;;;;13.15;5.97;;;;;;;;;;4462983;32;20383;-55
2021/08/10 05:29:08;;;;;;;8.45;5.15;;;;;;;;;;4463447;32;20216;-55
2021/08/10 05:31:34;;;;;;;9.07;5.28;;;;;;;;;;4463661;32;20273;-55
2021/08/10 05:33:59;;;;;;;10.75;5.97;;;;;;;;;;4463789;32;20625;-55
2021/08/10 05:36:25;;;;;;;10.20;5.37;;;;;;;;;;4461677;32;20672;-55
2021/08/10 05:38:53;;;;;;;9.43;5.18;;;;;;;;;;4464060;32;20287;-55
2021/08/10 05:41:19;;;;;;;7.05;5.03;;;;;;;;;;4463964;32;20200;-55
2021/08/10 05:43:44;;;;;;;6.28;4.47;;;;;;;;;;4463714;32;20713;-55
2021/08/10 05:46:10;;;;;;;13.13;5.97;;;;;;;;;;4463719;32;20263;-57
2021/08/10 05:48:35;;;;;;;8.85;4.25;;;;;;;;;;4463446;32;20280;-54
2021/08/10 05:51:03;;;;;;;8.10;4.45;;;;;;;;;;4463914;32;20271;-54
2021/08/10 05:53:30;;;;;;;9.07;4.45;;;;;;;;;;4463438;32;20212;-54
2021/08/10 05:55:56;;;;;;;13.20;5.55;;;;;;;;;;4464344;32;20279;-54
2021/08/10 05:58:21;;;;;;;7.43;5.20;;;;;;;;;;4463856;32;20276;-54
2021/08/10 06:00:47;;;;;;;7.95;4.90;;;;;;;;;;4455290;32;20322;-54
2021/08/10 06:03:12;;;;;;;8.98;4.82;;;;;;;;;;4450805;32;20302;-54
2021/08/10 06:05:38;;;;;;;6.30;4.15;;;;;;;;;;4463582;32;20250;-54
2021/08/10 06:08:03;;;;;;;8.48;4.10;;;;;;;;;;4463535;32;20653;-54
2021/08/10 06:10:29;;;;;;;12.35;5.05;;;;;;;;;;4463823;32;20274;-56
2021/08/10 06:12:54;;;;;;;10.35;5.55;;;;;;;;;;4463426;32;20383;-55
2021/08/10 06:15:20;;;;;;;10.05;5.03;;;;;;;;;;4463160;32;20335;-54
2021/08/10 06:17:45;;;;;;;9.80;5.15;;;;;;;;;;4461282;32;20337;-54
2021/08/10 06:20:11;;;;;;;10.00;5.22;;;;;;;;;;4463134;32;20340;-56
2021/08/10 06:22:37;;;;;;;6.47;4.43;;;;;;;;;;4463535;32;20310;-54
2021/08/10 06:25:03;;;;;;;7.70;4.90;;;;;;;;;;4462219;32;20222;-54
2021/08/10 06:27:28;;;;;;;14.95;4.78;;;;;;;;;;4462900;32;20349;-55
2021/08/10 06:29:54;;;;;;;9.70;4.82;;;;;;;;;;4451614;32;20250;-55
2021/08/10 06:32:19;;;;;;;7.28;4.65;;;;;;;;;;4445546;32;20809;-55
2021/08/10 06:34:44;;;;;;;6.62;4.32;;;;;;;;;;4458325;32;20635;-55
2021/08/10 06:37:10;;;;;;;6.87;4.55;;;;;;;;;;4461405;32;20283;-54
2021/08/10 06:39:36;;;;;;;7.93;4.93;;;;;;;;;;4461191;32;20298;-54
2021/08/10 06:42:01;;;;;;;12.80;4.75;;;;;;;;;;4461167;32;20297;-55
2021/08/10 06:44:27;;;;;;;7.12;4.05;;;;;;;;;;4460681;32;20849;-54
2021/08/10 06:46:52;;;;;;;7.40;4.57;;;;;;;;;;4461223;32;20324;-54
2021/08/10 06:49:17;;;;;;;9.52;5.30;;;;;;;;;;4460669;32;20224;-54
2021/08/10 06:51:43;;;;;;;6.93;4.35;;;;;;;;;;4461149;32;20266;-55
2021/08/10 06:54:08;;;;;;;8.13;4.55;;;;;;;;;;4461078;32;20220;-54
2021/08/10 06:56:34;;;;;;;7.65;4.50;;;;;;;;;;4460791;32;20286;-54
2021/08/10 06:58:59;;;;;;;7.62;4.93;;;;;;;;;;4461113;32;20258;-54
2021/08/10 07:01:25;;;;;;;8.98;4.35;;;;;;;;;;4459301;32;20301;-54
2021/08/10 07:03:53;;;;;;;11.68;4.72;;;;;;;;;;4462314;32;20870;-54
2021/08/10 07:06:18;;;;;;;7.78;4.68;;;;;;;;;;4463088;32;20357;-54
2021/08/10 07:08:44;;;;;;;7.00;4.50;;;;;;;;;;4462906;32;20542;-54
2021/08/10 07:11:09;;;;;;;8.82;5.18;;;;;;;;;;4462921;32;20332;-53
2021/08/10 07:13:35;;;;;;;7.12;5.43;;;;;;;;;;4461652;32;20228;-53
2021/08/10 07:16:00;;;;;;;10.15;5.03;;;;;;;;;;4462842;32;20457;-53
2021/08/10 07:18:26;;;;;;;11.88;5.15;;;;;;;;;;4461630;32;20317;-54
2021/08/10 07:20:51;;;;;;;10.10;4.60;;;;;;;;;;4448445;32;20345;-53
2021/08/10 07:23:17;;;;;;;6.32;4.15;;;;;;;;;;4449982;32;20243;-53
2021/08/10 07:25:42;;;;;;;8.30;4.30;;;;;;;;;;4462970;32;20267;-54
2021/08/10 07:28:07;;;;;;;5.62;3.90;;;;;;;;;;4462025;32;20411;-54
2021/08/10 07:30:33;;;;;;;10.65;4.43;;;;;;;;;;4461836;32;20604;-53
2021/08/10 07:32:58;;;;;;;7.70;3.35;;;;;;;;;;4461628;32;20301;-55
2021/08/10 07:35:24;;;;;;;6.37;4.05;;;;;;;;;;4462260;32;20373;-55
2021/08/10 07:37:49;;;;;;;7.62;4.32;;;;;;;;;;4462365;32;20263;-56
2021/08/10 07:40:15;;;;;;;6.97;4.55;;;;;;;;;;4462624;32;20725;-55
2021/08/10 07:42:41;;;;;;;7.60;3.62;;;;;;;;;;4459833;32;20343;-57
2021/08/10 07:45:07;;;;;;;6.10;4.03;;;;;;;;;;4459904;32;20402;-57
2021/08/10 07:47:34;;;;;;;6.05;4.00;;;;;;;;;;4461492;32;20655;-55
2021/08/10 07:49:59;;;;;;;10.55;4.25;;;;;;;;;;4461310;32;20290;-54
2021/08/10 07:52:24;;;;;;;7.28;3.97;;;;;;;;;;4461693;32;20334;-55
2021/08/10 07:54:51;;;;;;;5.18;3.90;;;;;;;;;;4455880;32;20342;-54
2021/08/10 07:57:16;;;;;;;10.68;4.28;;;;;;;;;;4457437;32;20326;-55
2021/08/10 07:59:42;;;;;;;7.68;4.75;;;;;;;;;;4457514;32;20244;-55
2021/08/10 08:02:08;;;;;;;6.57;4.53;;;;;;;;;;4460803;32;20250;-56
2021/08/10 08:04:35;;;;;;;6.25;3.42;;;;;;;;;;4465072;32;20247;-55
2021/08/10 08:07:01;;;;;;;11.85;4.18;;;;;;;;;;4465468;32;20212;-55
2021/08/10 08:09:27;;;;;;;9.38;3.85;;;;;;;;;;4464736;32;20336;-54
2021/08/10 08:11:52;;;;;;;5.85;4.15;;;;;;;;;;4465084;32;20332;-55
2021/08/10 08:14:21;;;;;;;4.75;4.00;;;;;;;;;;4464654;32;20228;-53
2021/08/10 08:16:49;;;;;;;6.28;3.55;;;;;;;;;;4464999;32;20286;-55
2021/08/10 08:19:15;;;;;;;5.75;4.25;;;;;;;;;;4459054;32;20247;-54
2021/08/10 08:21:41;;;;;;;6.57;4.50;;;;;;;;;;4460409;32;20267;-55
2021/08/10 08:24:07;;;;;;;6.75;4.25;;;;;;;;;;4457636;32;20335;-54
2021/08/10 08:26:33;;;;;;;12.20;3.85;;;;;;;;;;4447586;32;20665;-55
2021/08/10 08:28:59;;;;;;;6.25;4.15;;;;;;;;;;4452009;32;20292;-55
2021/08/10 08:31:25;;;;;;;6.62;4.25;;;;;;;;;;4457261;32;20240;-54
2021/08/10 08:33:50;;;;;;;5.87;4.07;;;;;;;;;;4460172;32;20773;-56
2021/08/10 08:36:16;;;;;;;5.78;3.90;;;;;;;;;;4458235;32;20294;-55
2021/08/10 08:38:41;;;;;;;8.07;4.93;;;;;;;;;;4463784;32;20236;-54
2021/08/10 08:41:09;;;;;;;6.80;3.92;;;;;;;;;;4456271;32;20310;-54
2021/08/10 08:43:34;;;;;;;6.25;4.43;;;;;;;;;;4458036;32;20229;-55
2021/08/10 08:46:00;;;;;;;5.12;3.92;;;;;;;;;;4463020;32;20274;-55
2021/08/10 08:48:27;;;;;;;8.05;4.10;;;;;;;;;;4448762;32;20334;-55
2021/08/10 08:50:53;;;;;;;6.15;4.00;;;;;;;;;;4450589;32;20680;-55
2021/08/10 08:53:19;;;;;;;13.75;3.50;;;;;;;;;;4454683;32;20315;-55
2021/08/10 08:55:46;;;;;;;5.62;3.62;;;;;;;;;;4462392;32;20295;-56
2021/08/10 08:58:13;;;;;;;6.75;3.60;;;;;;;;;;4448645;32;20298;-55
2021/08/10 09:00:39;;;;;;;7.22;4.28;;;;;;;;;;4455875;32;20204;-55
2021/08/10 09:03:05;;;;;;;5.45;3.50;;;;;;;;;;4453667;32;20292;-55
2021/08/10 09:05:33;;;;;;;5.85;3.80;;;;;;;;;;4463857;32;20296;-55
2021/08/10 09:08:32;;;;;;;6.50;4.25;;;;;;;;;;4448343;32;20286;-55
2021/08/10 09:11:04;;;;;;;6.60;3.83;;;;;;;;;;4463390;32;20208;-56
2021/08/10 09:13:31;;;;;;;9.60;3.95;;;;;;;;;;4457270;32;20278;-55
2021/08/10 09:16:05;;;;;;;8.10;4.28;;;;;;;;;;4461341;32;20402;-55
2021/08/10 09:18:31;;;;;;;11.32;4.60;;;;;;;;;;4448790;32;20318;-56
2021/08/10 09:21:11;;;;;;;7.97;3.45;;;;;;;;;;4455025;32;20374;-55
2021/08/10 09:23:44;;;;;;;8.57;3.42;;;;;;;;;;4457717;32;20289;-56
2021/08/10 09:26:13;;;;;;;4.35;3.72;;;;;;;;;;4450555;32;20232;-54
2021/08/10 09:28:39;;;;;;;6.50;3.42;;;;;;;;;;4463567;32;20228;-54
2021/08/10 09:31:40;;;;;;;8.18;3.90;;;;;;;;;;4462744;32;20759;-56
2021/08/10 09:34:28;;;;;;;6.20;4.25;;;;;;;;;;4462054;32;20244;-55
2021/08/10 09:36:54;;;;;;;8.15;4.40;;;;;;;;;;4463459;32;20223;-55
2021/08/10 09:39:38;;;;;;;10.00;4.30;;;;;;;;;;4463839;32;20266;-54
2021/08/10 09:42:06;;;;;;;8.23;3.62;;;;;;;;;;4452913;32;20224;-55
2021/08/10 09:44:33;;;;;;;4.85;4.00;;;;;;;;;;4459081;32;20334;-54
2021/08/10 09:46:58;;;;;;;11.60;5.07;;;;;;;;;;4457124;32;20243;-55
2021/08/10 09:49:42;;;;;;;5.45;3.70;;;;;;;;;;4448927;32;20227;-55
2021/08/10 09:52:22;;;;;;;9.82;4.22;;;;;;;;;;4448790;32;20254;-55
2021/08/10 09:54:47;;;;;;;9.90;3.87;;;;;;;;;;4455278;32;20319;-55
2021/08/10 09:57:13;;;;;;;7.45;5.03;;;;;;;;;;4456100;32;20332;-56
2021/08/10 09:59:41;;;;;;;9.27;4.78;;;;;;;;;;4462868;32;20227;-54
2021/08/10 10:02:24;;;;;;;8.07;5.47;;;;;;;;;;4450161;32;20303;-55
2021/08/10 10:04:56;;;;;;;10.05;5.55;;;;;;;;;;4463125;32;20259;-55
2021/08/10 10:07:23;;;;;;;9.38;5.10;;;;;;;;;;4454140;32;20304;-56
2021/08/10 10:09:49;;;;;;;8.73;5.20;;;;;;;;;;4453009;32;20227;-54
2021/08/10 10:12:16;;;;;;;7.12;4.80;;;;;;;;;;4459235;32;20310;-56
2021/08/10 10:14:44;;;;;;;9.55;5.75;;;;;;;;;;4448232;32;20282;-54
2021/08/10 10:17:11;;;;;;;9.23;6.30;;;;;;;;;;4463013;32;20610;-55
2021/08/10 10:19:39;;;;;;;12.65;7.47;;;;;;;;;;4458962;32;20382;-54
2021/08/10 10:22:13;;;;;;;12.55;7.82;;;;;;;;;;4449980;32;20269;-55
2021/08/10 10:24:40;;;;;;;12.73;7.43;;;;;;;;;;4463122;32;20249;-56
2021/08/10 10:27:07;;;;;;;14.57;8.30;;;;;;;;;;4455676;32;20298;-56
2021/08/10 10:29:33;;;;;;;11.50;7.28;;;;;;;;;;4454890;32;20228;-56
2021/08/10 10:31:59;;;;;;;9.95;6.85;;;;;;;;;;4454797;32;20359;-56
2021/08/10 10:34:26;;;;;;;16.37;7.80;;;;;;;;;;4452628;32;20280;-55
2021/08/10 10:36:51;;;;;;;11.57;7.30;;;;;;;;;;4453540;32;20223;-56
2021/08/10 10:39:39;;;;;;;10.48;7.90;;;;;;;;;;4462279;32;20550;-55
2021/08/10 10:42:13;;;;;;;14.32;9.38;;;;;;;;;;4448551;32;20307;-55
2021/08/10 10:44:41;;;;;;;13.93;8.23;;;;;;;;;;4462638;32;20593;-55
2021/08/10 10:47:25;;;;;;;10.15;7.95;;;;;;;;;;4455026;32;20291;-56
2021/08/10 10:50:14;;;;;;;12.43;6.97;;;;;;;;;;4447373;32;20311;-55
2021/08/10 10:52:58;;;;;;;15.23;7.12;;;;;;;;;;4443567;32;20695;-55
2021/08/10 10:55:34;;;;;;;12.30;6.97;;;;;;;;;;4456289;32;20262;-56
2021/08/10 10:58:00;;;;;;;9.75;6.80;;;;;;;;;;4449950;32;20280;-55
2021/08/10 11:00:27;;;;;;;7.18;6.47;;;;;;;;;;4450025;32;20688;-57
2021/08/10 11:03:12;;;;;;;13.05;7.53;;;;;;;;;;4456178;32;20208;-55
2021/08/10 11:05:38;;;;;;;13.85;7.50;;;;;;;;;;4450841;32;20596;-55
2021/08/10 11:08:05;;;;;;;8.60;6.55;;;;;;;;;;4459716;32;20295;-55
2021/08/10 11:10:38;;;;;;;12.13;6.87;;;;;;;;;;4447980;32;20589;-55
2021/08/10 11:13:23;;;;;;;13.18;6.87;;;;;;;;;;4447893;32;20603;-55
2021/08/10 11:15:48;;;;;;;14.43;7.20;;;;;;;;;;4439617;32;20228;-55
2021/08/10 11:18:14;;;;;;;8.88;6.45;;;;;;;;;;4458469;32;20358;-55
2021/08/10 11:20:41;;;;;;;9.82;7.30;;;;;;;;;;4458241;32;20401;-55
2021/08/10 11:23:25;;;;;;;7.20;5.32;;;;;;;;;;4452250;32;20290;-55
2021/08/10 11:25:51;;;;;;;10.20;6.68;;;;;;;;;;4449958;32;20297;-54
2021/08/10 11:28:35;;;;;;;12.60;6.28;;;;;;;;;;4451944;32;20877;-56
2021/08/10 11:31:05;;;;;;;7.28;5.47;;;;;;;;;;4456710;32;20254;-56
2021/08/10 11:33:33;;;;;;;7.93;5.60;;;;;;;;;;4458597;32;20302;-57
2021/08/10 11:36:11;;;;;;;9.13;5.10;;;;;;;;;;4452383;32;20247;-55
2021/08/10 11:38:52;;;;;;;19.30;6.97;;;;;;;;;;4460911;32;20299;-56
2021/08/10 11:41:27;;;;;;;8.73;5.57;;;;;;;;;;4458738;32;20205;-56
2021/08/10 11:43:56;;;;;;;12.90;6.45;;;;;;;;;;4459422;32;20232;-56
2021/08/10 11:46:32;;;;;;;6.65;5.00;;;;;;;;;;4452055;32;20609;-56
2021/08/10 11:49:06;;;;;;;5.78;4.57;;;;;;;;;;4464638;32;20302;-55
2021/08/10 11:51:35;;;;;;;9.07;6.85;;;;;;;;;;4454741;32;20216;-55
2021/08/10 11:54:10;;;;;;;7.80;6.07;;;;;;;;;;4461774;32;20292;-56
2021/08/10 11:56:47;;;;;;;10.45;6.93;;;;;;;;;;4460938;32;20545;-57
2021/08/10 11:59:31;;;;;;;10.57;6.37;;;;;;;;;;4447553;32;20240;-57
2021/08/10 12:01:59;;;;;;;8.93;5.78;;;;;;;;;;4448886;32;20303;-56
2021/08/10 12:04:27;;;;;;;10.63;4.60;;;;;;;;;;4458629;32;20236;-56
2021/08/10 12:06:54;;;;;;;6.15;4.32;;;;;;;;;;4458532;32;20212;-56
2021/08/10 12:09:24;;;;;;;8.70;4.55;;;;;;;;;;4449323;32;20236;-55
2021/08/10 12:11:52;;;;;;;6.10;4.40;;;;;;;;;;4460915;32;20295;-55
2021/08/10 12:14:23;;;;;;;6.65;4.12;;;;;;;;;;4455410;32;20399;-55
2021/08/10 12:17:00;;;;;;;7.43;4.32;;;;;;;;;;4454958;32;20398;-55
2021/08/10 12:19:49;;;;;;;5.43;3.95;;;;;;;;;;4464111;32;20231;-55
2021/08/10 12:22:31;;;;;;;5.55;3.85;;;;;;;;;;4442753;32;20287;-55
2021/08/10 12:25:00;;;;;;;12.40;4.72;;;;;;;;;;4463939;32;20298;-55
2021/08/10 12:27:29;;;;;;;9.40;5.05;;;;;;;;;;4454781;32;20296;-55
2021/08/10 12:29:54;;;;;;;5.75;3.75;;;;;;;;;;4458076;32;20343;-55
2021/08/10 12:32:33;;;;;;;6.95;4.85;;;;;;;;;;4458048;32;20291;-56
2021/08/10 12:35:13;;;;;;;10.05;4.43;;;;;;;;;;4462650;32;20227;-56
2021/08/10 12:37:39;;;;;;;6.20;4.43;;;;;;;;;;4451521;32;20648;-55
2021/08/10 12:40:05;;;;;;;7.43;5.35;;;;;;;;;;4447447;32;20274;-55
2021/08/10 12:42:37;;;;;;;6.15;3.72;;;;;;;;;;4451366;32;20345;-55
2021/08/10 12:45:03;;;;;;;7.12;4.57;;;;;;;;;;4452923;32;20258;-56
2021/08/10 12:47:38;;;;;;;8.63;3.60;;;;;;;;;;4456418;32;20338;-57
2021/08/10 12:50:24;;;;;;;5.80;4.05;;;;;;;;;;4448675;32;20330;-55
2021/08/10 12:52:50;;;;;;;6.32;4.03;;;;;;;;;;4453707;32;20220;-55
2021/08/10 12:55:15;;;;;;;5.47;3.75;;;;;;;;;;4456365;32;20295;-57
2021/08/10 12:57:41;;;;;;;6.80;3.97;;;;;;;;;;4452524;32;20283;-56
2021/08/10 13:00:18;;;;;;;8.70;4.80;;;;;;;;;;4449216;32;20244;-56
2021/08/10 13:02:48;;;;;;;8.70;4.47;;;;;;;;;;4452392;32;20216;-56
2021/08/10 13:05:18;;;;;;;7.75;4.20;;;;;;;;;;4455005;32;20217;-55
2021/08/10 13:08:01;;;;;;;8.30;4.85;;;;;;;;;;4459893;32;20638;-56
2021/08/10 13:10:31;;;;;;;7.47;4.62;;;;;;;;;;4460788;32;20314;-55
2021/08/10 13:12:59;;;;;;;9.98;4.65;;;;;;;;;;4453003;32;20287;-56
2021/08/10 13:15:25;;;;;;;6.18;4.20;;;;;;;;;;4463525;32;20250;-56
2021/08/10 13:17:53;;;;;;;8.63;4.28;;;;;;;;;;4451192;32;20321;-56
2021/08/10 13:20:25;;;;;;;9.35;5.07;;;;;;;;;;4450547;32;20278;-57
2021/08/10 13:22:56;;;;;;;6.57;4.12;;;;;;;;;;4457557;32;20565;-56
2021/08/10 13:25:23;;;;;;;7.68;4.37;;;;;;;;;;4452761;32;20300;-55
2021/08/10 13:27:50;;;;;;;6.07;4.50;;;;;;;;;;4447903;32;20235;-55
2021/08/10 13:30:21;;;;;;;5.07;4.15;;;;;;;;;;4451027;32;20726;-56
2021/08/10 13:33:10;;;;;;;8.00;4.05;;;;;;;;;;4453592;32;20291;-56
2021/08/10 13:35:37;;;;;;;5.90;4.30;;;;;;;;;;4458818;32;20208;-56
2021/08/10 13:38:04;;;;;;;6.32;3.95;;;;;;;;;;4450357;32;20228;-56
2021/08/10 13:40:31;;;;;;;6.78;3.90;;;;;;;;;;4450916;32;20270;-56
2021/08/10 13:42:56;;;;;;;4.32;3.25;;;;;;;;;;4456668;32;20781;-55
2021/08/10 13:45:24;;;;;;;6.32;3.45;;;;;;;;;;4453422;32;20291;-57
2021/08/10 13:47:51;;;;;;;5.68;3.08;;;;;;;;;;4459689;32;20212;-56
2021/08/10 13:50:17;;;;;;;4.37;3.75;;;;;;;;;;4460165;32;20573;-56
2021/08/10 13:52:42;;;;;;;5.62;3.40;;;;;;;;;;4447051;32;20295;-56
2021/08/10 13:55:08;;;;;;;3.85;3.28;;;;;;;;;;4454082;32;20351;-55
2021/08/10 13:57:34;;;;;;;6.65;4.10;;;;;;;;;;4458100;32;20447;-57
2021/08/10 13:59:59;;;;;;;5.22;3.45;;;;;;;;;;4449413;32;20248;-56
2021/08/10 14:02:25;;;;;;;7.32;3.28;;;;;;;;;;4458758;32;20283;-56
2021/08/10 14:04:50;;;;;;;4.32;3.22;;;;;;;;;;4454045;32;20233;-55
2021/08/10 14:07:18;;;;;;;5.30;3.60;;;;;;;;;;4450966;32;20350;-55
2021/08/10 14:09:43;;;;;;;5.62;3.47;;;;;;;;;;4459443;32;20295;-55
2021/08/10 14:12:09;;;;;;;7.35;2.90;;;;;;;;;;4449614;32;20407;-57
2021/08/10 14:14:34;;;;;;;3.97;3.00;;;;;;;;;;4462228;32;20312;-55
2021/08/10 14:16:59;;;;;;;4.32;3.28;;;;;;;;;;4456200;32;20287;-55
2021/08/10 14:19:25;;;;;;;7.37;3.58;;;;;;;;;;4447623;32;20220;-56
2021/08/10 14:21:51;;;;;;;5.72;3.80;;;;;;;;;;4459201;32;20328;-56
2021/08/10 14:24:16;;;;;;;9.45;3.90;;;;;;;;;;4453529;32;20423;-55
2021/08/10 14:26:42;;;;;;;3.85;3.30;;;;;;;;;;4452274;32;20299;-55
2021/08/10 14:29:08;;;;;;;7.35;4.40;;;;;;;;;;4461224;32;20239;-55
2021/08/10 14:31:33;;;;;;;6.75;4.12;;;;;;;;;;4458940;32;20316;-56
2021/08/10 14:33:59;;;;;;;6.45;3.97;;;;;;;;;;4459199;32;20216;-56
2021/08/10 14:36:24;;;;;;;6.10;3.87;;;;;;;;;;4459784;32;20287;-56
2021/08/10 14:38:50;;;;;;;5.25;3.90;;;;;;;;;;4447571;32;20655;-56
2021/08/10 14:41:15;;;;;;;8.05;4.28;;;;;;;;;;4454001;32;20789;-55
2021/08/10 14:43:40;;;;;;;4.07;3.20;;;;;;;;;;4455919;32;20303;-55
2021/08/10 14:46:06;;;;;;;7.72;4.22;;;;;;;;;;4449238;32;20334;-56
2021/08/10 14:48:32;;;;;;;4.65;3.67;;;;;;;;;;4462046;32;20239;-56